Greenville, WV (24945)

2:33 PM EDT on May 28, 2015 (GMT -0400)
ADAIR RIDGE ROAD | | Change Station
CLOSE
Current Station
Personal Weather Station
Location: Ballard, WV
Elevation: 2053 ft
Nearby Weather Stations

Elev 2053 ft 37.50 °N, 80.78 °W | Updated 1 second ago

Partly Cloudy
Partly Cloudy
85.1 °F
Feels Like 87 °F
N
1.6
Wind Variable Wind from NW
Gusts 2.0 mph

Today
High -- | Low -- °F
--% Chance of Precip.
Yesterday
High -- | Low -- °F
Precip. -- in
6:04 AM 8:35 PM
Waxing Gibbous, 77% visible
Pressure 30.30 in
Visibility 10.0 miles
Clouds Scattered Clouds 5000 ft
Scattered Clouds 7000 ft
Scattered Clouds 8000 ft
Heat Index 87 °F
Dew Point 65 °F
Humidity 51%
Rainfall 0.00 in
Snow Depth Not available.
UV 9 out of 12
Pollen 7.40 out of 12
Air Quality Not available.
Flu Activity Sporadic
METAR KBCB 281815Z AUTO 00000KT 10SM VCTS SCT050 SCT070 SCT080 27/14 A3030 RMK AO2 LTG DSNT S T02700143

More Conditions Fewer Conditions

Pressure 30.30 in
Visibility 10.0 miles
Clouds Scattered Clouds 5000 ft
Scattered Clouds 7000 ft
Scattered Clouds 8000 ft
Heat Index 87 °F
Dew Point 65 °F
Humidity 51%
Rainfall 0.00 in
Snow Depth Not available.
UV 9 out of 12
Pollen 7.40 out of 12
Air Quality Not available.
Flu Activity Sporadic
METAR KBCB 281815Z AUTO 00000KT 10SM VCTS SCT050 SCT070 SCT080 27/14 A3030 RMK AO2 LTG DSNT S T02700143

More Conditions Fewer Conditions

10-Day Weather Forecast

Almanac

Astronomy

May. 28, 2015 Rise Set
Actual Time
Civil Twilight
Nautical Twilight
Astronomical Twilight
Moon
Length of Visible Light
Length of Day
Tomorrow will be .
, % of the Moon is Illuminated

Today's Extremes

State Highs State Lows

Community

WunderPhotos

Upload Photos

1,825,011 photos uploaded!

WunderBlogs® & News

Nearby

Air Quality

  Air Quality AQ Index Pollutant
Not available.

Snow Depth

Station Depth Elevation

Earthquake Activity

City Distance Mag. Time & Date
Minimum magnitude displayed is 2.5.

Coastal Water Temperatures

Place Temperature

Stations

Nearby Weather Stations

Station Location Temp. Windchill Dew Point Humidity Wind Precip. Elev Updated Type